createdAt,value
2019-01-11T00:01:32.989Z,3.35
2019-01-11T00:04:01.293Z,3.33
2019-01-11T00:06:29.558Z,3.32
2019-01-11T00:08:57.814Z,3.35
2019-01-11T00:11:26.145Z,3.33
2019-01-11T00:13:54.435Z,3.31
2019-01-11T00:16:22.750Z,3.34
2019-01-11T00:18:50.998Z,3.35
2019-01-11T00:21:19.291Z,3.37
2019-01-11T00:23:47.652Z,3.38
2019-01-11T00:26:16.022Z,3.41
2019-01-11T00:28:44.318Z,3.43
2019-01-11T00:31:12.616Z,3.41
2019-01-11T00:33:40.928Z,3.41
2019-01-11T00:36:09.185Z,3.47
2019-01-11T00:38:37.449Z,3.45
2019-01-11T00:41:05.724Z,3.46
2019-01-11T00:43:34.037Z,3.48
2019-01-11T00:46:02.421Z,3.48
2019-01-11T00:48:30.680Z,3.49
2019-01-11T00:50:58.942Z,3.47
2019-01-11T00:53:27.284Z,3.50
2019-01-11T00:55:55.517Z,3.54
2019-01-11T00:58:23.813Z,3.56
2019-01-11T01:00:52.133Z,3.53
2019-01-11T01:03:20.384Z,3.53
2019-01-11T01:05:48.649Z,3.57
2019-01-11T01:08:16.952Z,3.57
2019-01-11T01:10:45.318Z,3.55
2019-01-11T01:13:13.858Z,3.58
2019-01-11T01:15:42.103Z,3.54
2019-01-11T01:18:10.423Z,3.57
2019-01-11T01:20:38.876Z,3.57
2019-01-11T01:23:07.899Z,3.56
2019-01-11T01:25:36.238Z,3.57
2019-01-11T01:28:04.686Z,3.59
2019-01-11T01:30:32.984Z,3.61
2019-01-11T01:33:01.231Z,3.58
2019-01-11T01:35:29.543Z,3.58
2019-01-11T01:37:57.790Z,3.57
2019-01-11T01:40:26.081Z,3.61
2019-01-11T01:42:54.403Z,3.62
2019-01-11T01:45:22.713Z,3.63
2019-01-11T01:47:50.993Z,3.62
2019-01-11T01:50:20.056Z,3.63
2019-01-11T01:52:48.363Z,3.64
2019-01-11T01:55:16.696Z,3.66
2019-01-11T01:57:44.953Z,3.66
2019-01-11T02:00:15.984Z,3.64
2019-01-11T02:02:44.245Z,3.66
2019-01-11T02:05:12.606Z,3.70
2019-01-11T02:07:40.902Z,3.72
2019-01-11T02:10:11.354Z,3.72
2019-01-11T02:12:39.709Z,3.74
2019-01-11T02:15:09.699Z,3.76
2019-01-11T02:17:37.974Z,3.79
2019-01-11T02:20:09.502Z,3.80
2019-01-11T02:22:37.803Z,3.80
2019-01-11T02:25:06.834Z,3.80
2019-01-11T02:27:35.087Z,3.85
2019-01-11T02:30:04.158Z,3.84
2019-01-11T02:32:32.429Z,3.85
2019-01-11T02:35:01.028Z,3.83
2019-01-11T02:37:29.296Z,3.86
2019-01-11T02:39:57.554Z,3.88
2019-01-11T02:42:25.838Z,3.90
2019-01-11T02:44:54.091Z,3.92
2019-01-11T02:47:22.380Z,3.98
2019-01-11T02:49:50.701Z,4.00
2019-01-11T02:52:18.996Z,4.00
2019-01-11T02:54:47.270Z,4.00
2019-01-11T02:57:15.568Z,4.02
2019-01-11T02:59:43.914Z,4.03
2019-01-11T03:02:12.214Z,4.04
2019-01-11T03:04:40.534Z,4.05
2019-01-11T03:07:08.818Z,4.06
2019-01-11T03:09:37.106Z,4.08
2019-01-11T03:12:05.486Z,4.08
2019-01-11T03:14:33.768Z,4.10
2019-01-11T03:17:02.078Z,4.11
2019-01-11T03:19:30.349Z,4.14
2019-01-11T03:21:58.671Z,4.14
2019-01-11T03:24:27.107Z,4.16
2019-01-11T03:26:55.368Z,4.15
2019-01-11T03:29:23.663Z,4.19
2019-01-11T03:31:51.943Z,4.17
2019-01-11T03:34:20.221Z,4.17
2019-01-11T03:36:49.279Z,4.21
2019-01-11T03:39:17.620Z,4.22
2019-01-11T03:41:47.524Z,4.24
2019-01-11T03:44:15.773Z,4.27
2019-01-11T03:46:44.173Z,4.27
2019-01-11T03:49:12.484Z,4.29
2019-01-11T03:51:40.782Z,4.32
2019-01-11T03:54:09.061Z,4.33
2019-01-11T03:56:37.360Z,4.34
2019-01-11T03:59:05.783Z,4.37
2019-01-11T04:01:34.089Z,4.38
2019-01-11T04:04:02.351Z,4.41
2019-01-11T04:06:30.631Z,4.42
2019-01-11T04:08:58.878Z,4.45
2019-01-11T04:11:27.305Z,4.46
2019-01-11T04:13:55.613Z,4.49
2019-01-11T04:16:23.850Z,4.52
2019-01-11T04:18:53.769Z,4.54
2019-01-11T04:21:22.046Z,4.57
2019-01-11T04:23:50.419Z,4.59
2019-01-11T04:26:18.702Z,4.62
2019-01-11T04:28:47.005Z,4.62
2019-01-11T04:31:15.281Z,4.66
2019-01-11T04:33:43.599Z,4.66
2019-01-11T04:36:11.873Z,4.67
2019-01-11T04:38:40.129Z,4.72
2019-01-11T04:41:08.464Z,4.74
2019-01-11T04:43:36.710Z,4.75
2019-01-11T04:46:04.992Z,4.78
2019-01-11T04:48:34.139Z,4.79
2019-01-11T04:51:02.390Z,4.82
2019-01-11T04:53:30.682Z,4.85
2019-01-11T04:55:59.094Z,4.89
2019-01-11T04:58:27.345Z,4.93
2019-01-11T05:00:55.627Z,4.97
2019-01-11T05:03:24.290Z,4.99
2019-01-11T05:05:52.659Z,4.99
2019-01-11T05:08:20.963Z,5.01
2019-01-11T05:10:49.305Z,5.04
2019-01-11T05:13:37.117Z,5.10
2019-01-11T05:16:05.384Z,5.10
2019-01-11T05:18:33.790Z,5.12
2019-01-11T05:21:02.052Z,5.16
2019-01-11T05:23:30.310Z,5.13
2019-01-11T05:25:58.665Z,5.18
2019-01-11T05:28:27.004Z,5.19
2019-01-11T05:30:56.029Z,5.19
2019-01-11T05:33:24.374Z,5.20
2019-01-11T05:35:52.824Z,5.20
2019-01-11T05:38:21.084Z,5.24
2019-01-11T05:40:49.346Z,5.24
2019-01-11T05:43:19.581Z,5.26
2019-01-11T05:45:47.836Z,5.28
2019-01-11T05:48:16.094Z,5.29
2019-01-11T05:50:44.407Z,5.31
2019-01-11T05:53:12.678Z,5.33
2019-01-11T05:55:45.300Z,5.38
2019-01-11T05:58:18.050Z,5.38
2019-01-11T06:00:46.360Z,5.42
2019-01-11T06:03:14.644Z,5.42
2019-01-11T06:05:42.911Z,5.48
2019-01-11T06:08:12.883Z,5.51
2019-01-11T06:10:41.222Z,5.51
2019-01-11T06:13:09.670Z,5.57
2019-01-11T06:15:38.202Z,5.57
2019-01-11T06:18:06.504Z,5.64
2019-01-11T06:20:34.795Z,5.64
2019-01-11T06:23:03.121Z,5.60
2019-01-11T06:25:31.404Z,5.68
2019-01-11T06:27:59.742Z,5.76
2019-01-11T06:30:28.026Z,5.76
2019-01-11T06:32:56.352Z,5.81
2019-01-11T06:35:24.675Z,5.85
2019-01-11T06:37:52.928Z,5.85
2019-01-11T06:40:21.241Z,5.91
2019-01-11T06:42:49.704Z,5.95
2019-01-11T06:45:18.003Z,6.00
2019-01-11T06:47:46.448Z,6.01
2019-01-11T06:50:17.068Z,6.03
2019-01-11T06:52:45.349Z,6.05
2019-01-11T06:55:13.614Z,6.08
2019-01-11T06:57:41.936Z,6.13
2019-01-11T07:00:13.210Z,6.11
2019-01-11T07:02:41.525Z,6.10
2019-01-11T07:05:10.985Z,6.10
2019-01-11T07:07:39.701Z,6.09
2019-01-11T07:10:11.293Z,6.09
2019-01-11T07:12:39.573Z,6.14
2019-01-11T07:15:09.884Z,6.14
2019-01-11T07:17:38.200Z,6.17
2019-01-11T07:20:09.715Z,6.18
2019-01-11T07:22:37.957Z,6.16
2019-01-11T07:25:08.290Z,6.22
2019-01-11T07:27:38.211Z,6.23
2019-01-11T07:30:15.557Z,6.23
2019-01-11T07:32:44.032Z,6.24
2019-01-11T07:35:12.341Z,6.28
2019-01-11T07:37:40.618Z,6.34
2019-01-11T07:40:12.539Z,6.34
2019-01-11T07:42:40.917Z,6.38
2019-01-11T07:45:11.592Z,6.43
2019-01-11T07:47:39.967Z,6.48
2019-01-11T07:50:09.460Z,6.55
2019-01-11T07:52:37.789Z,6.58
2019-01-11T07:55:08.133Z,6.63
2019-01-11T07:57:36.543Z,6.67
2019-01-11T08:00:12.508Z,6.68
2019-01-11T08:02:41.325Z,6.65
2019-01-11T08:05:09.559Z,6.70
2019-01-11T08:07:37.835Z,6.71
2019-01-11T08:10:09.103Z,6.77
2019-01-11T08:12:37.472Z,6.77
2019-01-11T08:15:08.970Z,6.78
2019-01-11T08:17:37.229Z,6.80
2019-01-11T08:20:06.979Z,6.82
2019-01-11T08:22:36.872Z,6.81
2019-01-11T08:25:06.376Z,6.84
2019-01-11T08:27:34.728Z,6.87
2019-01-11T08:30:03.131Z,6.90
2019-01-11T08:32:31.432Z,6.90
2019-01-11T08:34:59.835Z,6.93
2019-01-11T08:37:29.101Z,6.97
2019-01-11T08:39:57.361Z,6.95
2019-01-11T08:42:25.676Z,6.99
2019-01-11T08:44:53.989Z,6.98
2019-01-11T08:47:22.266Z,7.01
2019-01-11T08:49:50.567Z,7.01
2019-01-11T08:52:18.855Z,7.02
2019-01-11T08:54:47.141Z,7.06
2019-01-11T08:57:16.267Z,7.07
2019-01-11T08:59:44.632Z,7.08
2019-01-11T09:02:13.064Z,7.10
2019-01-11T09:04:41.352Z,7.13
2019-01-11T09:07:09.621Z,7.16
2019-01-11T09:09:38.014Z,7.15
2019-01-11T09:12:06.349Z,7.20
2019-01-11T09:14:42.625Z,7.20
2019-01-11T09:17:10.865Z,7.17
2019-01-11T09:19:39.189Z,7.19
2019-01-11T09:22:07.489Z,7.23
2019-01-11T09:24:35.761Z,7.24
2019-01-11T09:27:04.216Z,7.30
2019-01-11T09:29:32.487Z,7.32
2019-01-11T09:32:00.910Z,7.30
2019-01-11T09:34:29.308Z,7.31
2019-01-11T09:36:57.665Z,7.36
2019-01-11T09:39:25.980Z,7.39
2019-01-11T09:41:54.269Z,7.43
2019-01-11T09:44:22.540Z,7.45
2019-01-11T09:46:50.865Z,7.47
2019-01-11T09:49:19.211Z,7.50
2019-01-11T09:51:47.493Z,7.53
2019-01-11T09:54:15.783Z,7.55
2019-01-11T09:56:44.112Z,7.60
2019-01-11T09:59:12.559Z,7.59
2019-01-11T10:01:40.930Z,7.61
2019-01-11T10:04:10.877Z,7.61
2019-01-11T10:06:40.922Z,7.64
2019-01-11T10:09:09.188Z,7.65
2019-01-11T10:11:37.538Z,7.65
2019-01-11T10:14:05.853Z,7.68
2019-01-11T10:16:34.192Z,7.74
2019-01-11T10:19:02.888Z,7.75
2019-01-11T10:21:31.242Z,7.72
2019-01-11T10:23:59.666Z,7.73
2019-01-11T10:26:28.128Z,7.71
2019-01-11T10:28:56.431Z,7.78
2019-01-11T10:31:24.699Z,7.79
2019-01-11T10:33:52.996Z,7.82
2019-01-11T10:36:22.162Z,7.84
2019-01-11T10:38:50.574Z,7.84
2019-01-11T10:41:18.918Z,7.86
2019-01-11T10:43:47.312Z,7.91
2019-01-11T10:46:20.195Z,7.90
2019-01-11T10:48:48.557Z,7.93
2019-01-11T10:51:19.089Z,7.98
2019-01-11T10:53:46.833Z,7.97
2019-01-11T10:56:15.091Z,7.94
2019-01-11T10:58:43.432Z,7.94
2019-01-11T11:01:11.679Z,7.93
2019-01-11T11:03:40.033Z,7.95
2019-01-11T11:06:08.306Z,7.97
2019-01-11T11:08:36.590Z,8.01
2019-01-11T11:11:04.861Z,8.06
2019-01-11T11:13:33.140Z,8.06
2019-01-11T11:16:01.531Z,8.06
2019-01-11T11:18:29.859Z,8.05
2019-01-11T11:20:58.109Z,8.05
2019-01-11T11:23:27.018Z,8.06
2019-01-11T11:25:55.316Z,8.11
2019-01-11T11:28:23.626Z,8.05
2019-01-11T11:30:52.046Z,8.03
2019-01-11T11:33:20.312Z,8.05
2019-01-11T11:35:48.573Z,8.02
2019-01-11T11:38:16.879Z,8.00
2019-01-11T11:40:45.178Z,8.03
2019-01-11T11:43:13.452Z,8.01
2019-01-11T11:45:41.715Z,8.01
2019-01-11T11:48:10.010Z,8.01
2019-01-11T11:50:38.259Z,8.05
2019-01-11T11:53:06.552Z,8.12
2019-01-11T11:55:34.835Z,8.10
2019-01-11T11:58:03.130Z,8.09
2019-01-11T12:00:31.469Z,8.16
2019-01-11T12:02:59.778Z,8.16
2019-01-11T12:05:28.225Z,8.20
2019-01-11T12:07:56.458Z,8.22
2019-01-11T12:10:24.715Z,8.27
2019-01-11T12:12:52.992Z,8.26
2019-01-11T12:15:21.249Z,8.28
2019-01-11T12:17:49.578Z,8.27
2019-01-11T12:20:24.299Z,8.33
2019-01-11T12:22:52.613Z,8.33
2019-01-11T12:25:21.468Z,8.33
2019-01-11T12:27:49.810Z,8.32
2019-01-11T12:30:18.306Z,8.29
2019-01-11T12:32:46.569Z,8.28
2019-01-11T12:35:14.853Z,8.29
2019-01-11T12:37:43.128Z,8.25
2019-01-11T12:40:13.871Z,8.23
2019-01-11T12:42:42.155Z,8.22
2019-01-11T12:45:13.130Z,8.28
2019-01-11T12:47:41.387Z,8.24
2019-01-11T12:50:12.934Z,8.29
2019-01-11T12:52:42.206Z,8.30
2019-01-11T12:55:10.530Z,8.32
2019-01-11T12:57:38.804Z,8.32
2019-01-11T13:00:10.621Z,8.33
2019-01-11T13:02:39.065Z,8.38
2019-01-11T13:05:09.665Z,8.41
2019-01-11T13:07:37.937Z,8.42
2019-01-11T13:10:09.312Z,8.46
2019-01-11T13:12:37.537Z,8.44
2019-01-11T13:15:09.205Z,8.45
2019-01-11T13:17:37.706Z,8.47
2019-01-11T13:20:09.294Z,8.44
2019-01-11T13:22:37.588Z,8.49
2019-01-11T13:25:07.112Z,8.47
2019-01-11T13:27:35.370Z,8.50
2019-01-11T13:30:06.050Z,8.54
2019-01-11T13:32:34.329Z,8.59
2019-01-11T13:35:02.590Z,8.62
2019-01-11T13:37:30.891Z,8.64
2019-01-11T13:39:59.488Z,8.58
2019-01-11T13:42:27.730Z,8.57
2019-01-11T13:44:56.109Z,8.55
2019-01-11T13:47:24.387Z,8.55
2019-01-11T13:49:52.714Z,8.44
2019-01-11T13:52:24.012Z,8.36
2019-01-11T13:54:52.331Z,8.36
2019-01-11T13:57:20.710Z,8.35
2019-01-11T13:59:48.956Z,8.34
2019-01-11T14:02:17.235Z,8.35
2019-01-11T14:04:45.509Z,8.32
2019-01-11T14:07:13.808Z,8.31
2019-01-11T14:09:42.089Z,8.31
2019-01-11T14:12:10.397Z,8.35
2019-01-11T14:14:38.772Z,8.35
2019-01-11T14:17:07.439Z,8.35
2019-01-11T14:19:35.682Z,8.35
2019-01-11T14:22:04.290Z,8.42
2019-01-11T14:24:32.662Z,8.38
2019-01-11T14:27:01.064Z,8.41
2019-01-11T14:29:29.355Z,8.40
2019-01-11T14:31:57.657Z,8.39
2019-01-11T14:34:26.070Z,8.34
2019-01-11T14:36:55.493Z,8.32
2019-01-11T14:39:23.915Z,8.33
2019-01-11T14:41:52.264Z,8.39
2019-01-11T14:44:20.744Z,8.35
2019-01-11T14:46:49.205Z,8.38
2019-01-11T14:49:17.457Z,8.37
2019-01-11T14:51:45.822Z,8.33
2019-01-11T14:54:14.096Z,8.34
2019-01-11T14:56:42.354Z,8.35
2019-01-11T14:59:10.697Z,8.36
2019-01-11T15:01:39.697Z,8.33
2019-01-11T15:04:08.063Z,8.30
2019-01-11T15:06:36.339Z,8.36
2019-01-11T15:09:06.859Z,8.35
2019-01-11T15:11:35.307Z,8.34
2019-01-11T15:14:04.306Z,8.33
2019-01-11T15:16:32.937Z,8.34
2019-01-11T15:19:03.627Z,8.34
2019-01-11T15:21:31.865Z,8.28
2019-01-11T15:24:00.194Z,8.28
2019-01-11T15:26:28.460Z,8.27
2019-01-11T15:28:56.752Z,8.31
2019-01-11T15:31:25.080Z,8.26
2019-01-11T15:33:53.355Z,8.28
2019-01-11T15:36:23.126Z,8.24
2019-01-11T15:38:51.493Z,8.21
2019-01-11T15:41:19.776Z,8.18
2019-01-11T15:43:48.156Z,8.22
2019-01-11T15:46:16.443Z,8.15
2019-01-11T15:48:46.991Z,8.15
2019-01-11T15:51:17.311Z,8.06
2019-01-11T15:53:45.600Z,8.01
2019-01-11T15:56:13.871Z,7.95
2019-01-11T15:58:42.319Z,7.98
2019-01-11T16:01:10.595Z,7.94
2019-01-11T16:03:38.890Z,7.92
2019-01-11T16:06:27.920Z,7.95
2019-01-11T16:09:14.475Z,7.93
2019-01-11T16:12:04.013Z,7.92
2019-01-11T16:14:44.265Z,7.90
2019-01-11T16:17:16.108Z,7.85
2019-01-11T16:19:45.131Z,7.86
2019-01-11T16:22:13.395Z,7.86
2019-01-11T16:24:41.679Z,7.88
2019-01-11T16:27:10.106Z,7.87
2019-01-11T16:29:38.430Z,7.93
2019-01-11T16:32:06.699Z,7.90
2019-01-11T16:34:35.012Z,7.87
2019-01-11T16:37:03.342Z,7.85
2019-01-11T16:39:31.682Z,7.84
2019-01-11T16:41:59.914Z,7.81
2019-01-11T16:44:28.192Z,7.76
2019-01-11T16:46:56.642Z,7.76
2019-01-11T16:49:24.925Z,7.74
2019-01-11T16:51:53.205Z,7.75
2019-01-11T16:54:21.516Z,7.73
2019-01-11T16:56:51.196Z,7.74
2019-01-11T16:59:20.053Z,7.73
2019-01-11T17:01:48.431Z,7.74
2019-01-11T17:04:16.832Z,7.77
2019-01-11T17:06:45.107Z,7.78
2019-01-11T17:09:13.509Z,7.79
2019-01-11T17:11:41.818Z,7.80
2019-01-11T17:14:10.434Z,7.81
2019-01-11T17:16:38.868Z,7.82
2019-01-11T17:19:07.175Z,7.83
2019-01-11T17:21:35.481Z,7.92
2019-01-11T17:24:03.740Z,7.93
2019-01-11T17:26:31.998Z,7.95
2019-01-11T17:29:00.324Z,7.95
2019-01-11T17:31:28.610Z,7.91
2019-01-11T17:33:56.920Z,7.85
2019-01-11T17:36:25.310Z,7.80
2019-01-11T17:38:53.646Z,7.75
2019-01-11T17:41:21.919Z,7.71
2019-01-11T17:43:50.224Z,7.68
2019-01-11T17:46:18.471Z,7.68
2019-01-11T17:48:46.820Z,7.63
2019-01-11T17:51:15.110Z,7.62
2019-01-11T17:53:43.415Z,7.62
2019-01-11T17:56:11.715Z,7.61
2019-01-11T17:58:39.991Z,7.57
2019-01-11T18:01:08.271Z,7.57
2019-01-11T18:03:36.575Z,7.54
2019-01-11T18:06:05.973Z,7.55
2019-01-11T18:08:34.408Z,7.58
2019-01-11T18:11:02.823Z,7.62
2019-01-11T18:13:31.098Z,7.65
2019-01-11T18:15:59.372Z,7.59
2019-01-11T18:18:27.651Z,7.59
2019-01-11T18:20:55.943Z,7.60
2019-01-11T18:23:24.201Z,7.59
2019-01-11T18:25:52.814Z,7.60
2019-01-11T18:28:21.055Z,7.63
2019-01-11T18:30:49.363Z,7.68
2019-01-11T18:33:17.680Z,7.67
2019-01-11T18:35:45.945Z,7.70
2019-01-11T18:38:14.211Z,7.72
2019-01-11T18:40:44.894Z,7.69
2019-01-11T18:43:13.346Z,7.70
2019-01-11T18:45:41.623Z,7.68
2019-01-11T18:48:09.887Z,7.70
2019-01-11T18:50:38.745Z,7.72
2019-01-11T18:53:13.480Z,7.67
2019-01-11T18:55:37.602Z,7.69
2019-01-11T18:58:05.946Z,7.71
2019-01-11T19:00:34.310Z,7.71
2019-01-11T19:03:02.601Z,7.72
2019-01-11T19:05:30.889Z,7.72
2019-01-11T19:07:59.215Z,7.71
2019-01-11T19:10:27.514Z,7.70
2019-01-11T19:12:55.794Z,7.70
2019-01-11T19:15:26.639Z,7.69
2019-01-11T19:17:54.923Z,7.67
2019-01-11T19:20:27.800Z,7.77
2019-01-11T19:22:56.068Z,7.79
2019-01-11T19:25:24.365Z,7.75
2019-01-11T19:27:52.669Z,7.75
2019-01-11T19:30:25.786Z,7.75
2019-01-11T19:32:54.033Z,7.77
2019-01-11T19:35:22.308Z,7.79
2019-01-11T19:37:50.637Z,7.75
2019-01-11T19:40:18.944Z,7.76
2019-01-11T19:42:47.571Z,7.72
2019-01-11T19:45:17.028Z,7.72
2019-01-11T19:47:45.343Z,7.70
2019-01-11T19:50:15.751Z,7.75
2019-01-11T19:52:46.972Z,7.75
2019-01-11T19:55:15.553Z,7.73
2019-01-11T19:57:43.783Z,7.72
2019-01-11T20:00:20.843Z,7.70
2019-01-11T20:02:50.674Z,7.67
2019-01-11T20:05:19.392Z,7.66
2019-01-11T20:07:47.910Z,7.64
2019-01-11T20:10:22.998Z,7.62
2019-01-11T20:12:51.460Z,7.64
2019-01-11T20:15:19.980Z,7.65
2019-01-11T20:17:48.258Z,7.66
2019-01-11T20:20:16.620Z,7.64
2019-01-11T20:22:45.004Z,7.67
2019-01-11T20:25:18.860Z,7.66
2019-01-11T20:27:47.109Z,7.61
2019-01-11T20:30:17.994Z,7.62
2019-01-11T20:32:46.299Z,7.62
2019-01-11T20:35:14.710Z,7.59
2019-01-11T20:37:43.049Z,7.56
2019-01-11T20:40:13.717Z,7.61
2019-01-11T20:42:42.013Z,7.51
2019-01-11T20:45:14.942Z,7.51
2019-01-11T20:47:43.736Z,7.50
2019-01-11T20:50:16.526Z,7.50
2019-01-11T20:52:44.859Z,7.45
2019-01-11T20:55:13.142Z,7.47
2019-01-11T20:57:41.473Z,7.46
2019-01-11T21:00:18.822Z,7.48
2019-01-11T21:02:47.218Z,7.48
2019-01-11T21:05:15.746Z,7.50
2019-01-11T21:07:44.031Z,7.48
2019-01-11T21:10:13.144Z,7.51
2019-01-11T21:12:41.413Z,7.50
2019-01-11T21:15:12.677Z,7.55
2019-01-11T21:17:40.962Z,7.52
2019-01-11T21:20:12.194Z,7.54
2019-01-11T21:22:42.114Z,7.52
2019-01-11T21:25:12.435Z,7.52
2019-01-11T21:27:40.711Z,7.49
2019-01-11T21:30:14.712Z,7.48
2019-01-11T21:32:43.005Z,7.52
2019-01-11T21:35:11.252Z,7.52
2019-01-11T21:37:39.578Z,7.51
2019-01-11T21:40:11.230Z,7.50
2019-01-11T21:42:39.500Z,7.51
2019-01-11T21:45:09.429Z,7.48
2019-01-11T21:47:37.739Z,7.50
2019-01-11T21:50:09.281Z,7.46
2019-01-11T21:52:37.550Z,7.47
2019-01-11T21:55:06.914Z,7.47
2019-01-11T21:57:35.291Z,7.47
2019-01-11T22:00:05.602Z,7.46
2019-01-11T22:02:33.902Z,7.42
2019-01-11T22:05:02.209Z,7.39
2019-01-11T22:07:30.550Z,7.44
2019-01-11T22:09:58.776Z,7.45
2019-01-11T22:12:27.198Z,7.44
2019-01-11T22:14:55.467Z,7.40
2019-01-11T22:17:23.713Z,7.41
2019-01-11T22:19:52.097Z,7.40
2019-01-11T22:22:20.349Z,7.36
2019-01-11T22:24:48.607Z,7.34
2019-01-11T22:27:16.916Z,7.32
2019-01-11T22:29:45.206Z,7.36
2019-01-11T22:32:13.546Z,7.39
2019-01-11T22:34:41.791Z,7.32
2019-01-11T22:37:10.040Z,7.34
2019-01-11T22:39:38.343Z,7.33
2019-01-11T22:42:06.715Z,7.34
2019-01-11T22:44:34.987Z,7.31
2019-01-11T22:47:03.242Z,7.27
2019-01-11T22:49:31.569Z,7.25
2019-01-11T22:51:59.827Z,7.22
2019-01-11T22:54:28.089Z,7.28
2019-01-11T22:56:56.776Z,7.29
2019-01-11T22:59:25.134Z,7.33
2019-01-11T23:01:56.672Z,7.27
2019-01-11T23:04:24.931Z,7.22
2019-01-11T23:07:02.710Z,7.23
2019-01-11T23:09:33.833Z,7.25
2019-01-11T23:12:20.711Z,7.29
2019-01-11T23:14:48.998Z,7.26
2019-01-11T23:17:20.533Z,7.25
2019-01-11T23:19:48.973Z,7.25
2019-01-11T23:22:17.240Z,7.24
2019-01-11T23:24:45.569Z,7.26
2019-01-11T23:27:13.956Z,7.27
2019-01-11T23:29:42.268Z,7.21
2019-01-11T23:32:10.665Z,7.20
2019-01-11T23:34:38.983Z,7.20
2019-01-11T23:37:07.429Z,7.20
2019-01-11T23:39:35.697Z,7.17
2019-01-11T23:42:04.042Z,7.17
2019-01-11T23:44:32.364Z,7.13
2019-01-11T23:47:00.791Z,7.14
2019-01-11T23:49:29.101Z,7.15
2019-01-11T23:51:57.382Z,7.16
2019-01-11T23:54:25.724Z,7.18
2019-01-11T23:56:54.371Z,7.15
2019-01-11T23:59:22.648Z,7.16
